Main page
METAR-TAF:

METAR-TAF

Airports :

Comandante Gustavo Kraemer Airport

Bagé, Rio Grande do Sul, Brazil

latitude: 31-21S, longitude: 054-07W, elevation: 180 m

Current weather observation

The report was made 26 minutes ago, at 20:00 UTC
Wind 10 kt from the Southeast
Temperature 11°C
Humidity 71%
Pressure 1027 hPa
Visibility 10 km or more
Few clouds at a height of 2600 ft

METAR: SBBG 252000Z AUTO 14010KT 9999 FEW026 11/06 Q1027

Time: 17:26 (20:26 UTC)

Forecast

The report was made 5 hours and 26 minutes ago, at 15:00 UTC
Forecast valid from 25 at 18 UTC to 26 at 06 UTC
Wind 7 kt from the Southeast
Visibility 10 km or more
Scattered clouds at a height of 2000 ft
Becoming
from 25 at 20 UTC to 25 at 22 UTC
Visibility 10 km or more
no clouds below 1500 m and no cumulonimbus

TAF: SBBG 251500Z 2518/2606 14007KT 9999 SCT020 TX12/2518Z TN04/2606Z BECMG 2520/2522 CAVOK RMK PDW

Weather observations and forecasts of more than 4000 airports (METAR and TAF reports).

The available stations are represented by yellow and red dots on the map.

Hover mouse over dot to see the name of the station.

Then click to see weather observations and forecasts.

To change the map : click on the green buttons with a black cross to zoom in, on the green button with a dash to zoom out, or on the green arrows for adjacent maps.


METAR-TAF: